createdAt,value
2023-05-05T00:01:20.224Z,10.00
2023-05-05T00:06:23.057Z,9.80
2023-05-05T00:11:27.453Z,9.80
2023-05-05T00:16:30.223Z,10.00
2023-05-05T00:21:33.077Z,10.00
2023-05-05T00:26:37.190Z,10.00
2023-05-05T00:31:40.184Z,10.80
2023-05-05T00:36:42.983Z,9.80
2023-05-05T00:41:47.233Z,12.00
2023-05-05T00:46:50.129Z,11.00
2023-05-05T00:51:53.032Z,8.00
2023-05-05T00:56:57.219Z,9.60
2023-05-05T01:02:00.150Z,10.80
2023-05-05T01:07:08.699Z,8.60
2023-05-05T01:12:17.121Z,9.40
2023-05-05T01:17:21.192Z,9.00
2023-05-05T01:22:25.831Z,8.80
2023-05-05T01:27:38.306Z,10.20
2023-05-05T01:32:44.606Z,9.40
2023-05-05T01:37:48.752Z,9.80
2023-05-05T01:42:51.536Z,9.00
2023-05-05T01:47:55.845Z,9.00
2023-05-05T01:52:59.037Z,8.80
2023-05-05T01:58:01.797Z,9.00
2023-05-05T02:03:06.488Z,9.00
2023-05-05T02:08:09.820Z,9.00
2023-05-05T02:13:13.467Z,9.00
2023-05-05T02:18:17.764Z,8.40
2023-05-05T02:23:20.631Z,9.00
2023-05-05T02:28:24.250Z,7.60
2023-05-05T02:33:28.634Z,8.80
2023-05-05T02:38:31.867Z,8.00
2023-05-05T02:43:37.780Z,6.20
2023-05-05T02:48:42.328Z,8.00
2023-05-05T02:53:45.127Z,8.60
2023-05-05T02:58:50.079Z,8.00
2023-05-05T03:03:58.167Z,6.00
2023-05-05T03:09:07.276Z,6.00
2023-05-05T03:14:12.880Z,7.60
2023-05-05T03:19:18.985Z,8.00
2023-05-05T03:24:24.213Z,7.80
2023-05-05T03:29:37.356Z,7.00
2023-05-05T03:34:45.281Z,5.80
2023-05-05T03:39:48.775Z,6.80
2023-05-05T03:44:53.430Z,6.80
2023-05-05T03:50:00.635Z,6.80
2023-05-05T03:55:03.624Z,7.60
2023-05-05T04:00:11.758Z,6.80
2023-05-05T04:05:19.767Z,6.80
2023-05-05T04:10:22.939Z,6.00
2023-05-05T04:15:25.792Z,5.60
2023-05-05T04:20:30.256Z,6.80
2023-05-05T04:25:33.273Z,6.20
2023-05-05T04:30:36.503Z,5.00
2023-05-05T04:35:40.711Z,6.60
2023-05-05T04:40:43.718Z,5.00
2023-05-05T04:45:53.647Z,6.60
2023-05-05T04:50:59.714Z,6.80
2023-05-05T04:56:02.789Z,6.60
2023-05-05T05:01:06.079Z,6.20
2023-05-05T05:06:10.282Z,5.00
2023-05-05T05:11:13.190Z,5.00
2023-05-05T05:16:16.159Z,6.40
2023-05-05T05:21:20.995Z,4.40
2023-05-05T05:26:24.017Z,5.00
2023-05-05T05:31:27.090Z,6.20
2023-05-05T05:36:32.569Z,5.20
2023-05-05T05:41:35.613Z,4.00
2023-05-05T05:46:38.980Z,4.00
2023-05-05T05:51:43.707Z,5.00
2023-05-05T05:56:46.738Z,6.80
2023-05-05T06:01:49.676Z,6.80
2023-05-05T06:06:53.918Z,4.40
2023-05-05T06:11:56.994Z,5.00
2023-05-05T06:16:59.884Z,4.20
2023-05-05T06:22:06.343Z,4.20
2023-05-05T06:27:10.234Z,5.00
2023-05-05T06:32:14.181Z,4.80
2023-05-05T06:37:18.470Z,5.00
2023-05-05T06:42:21.548Z,5.00
2023-05-05T06:47:24.401Z,4.00
2023-05-05T06:52:28.747Z,5.00
2023-05-05T06:57:31.669Z,7.80
2023-05-05T07:02:34.638Z,8.60
2023-05-05T07:07:38.944Z,9.00
2023-05-05T07:12:41.995Z,9.00
2023-05-05T07:17:45.136Z,11.00
2023-05-05T07:22:49.494Z,8.00
2023-05-05T07:27:52.393Z,7.60
2023-05-05T07:32:56.710Z,7.00
2023-05-05T07:38:01.086Z,8.00
2023-05-05T07:43:04.776Z,8.80
2023-05-05T07:48:07.681Z,9.00
2023-05-05T07:53:14.983Z,7.80
2023-05-05T07:58:18.137Z,7.20
2023-05-05T08:03:24.520Z,5.00
2023-05-05T08:08:29.165Z,8.00
2023-05-05T08:13:32.220Z,6.60
2023-05-05T08:18:37.503Z,6.00
2023-05-05T08:23:42.031Z,6.80
2023-05-05T08:28:44.924Z,7.00
2023-05-05T08:33:47.789Z,8.00
2023-05-05T08:38:52.005Z,5.00
2023-05-05T08:43:54.838Z,5.00
2023-05-05T08:48:57.655Z,5.20
2023-05-05T08:54:03.436Z,7.80
2023-05-05T08:59:06.263Z,6.00
2023-05-05T09:04:09.357Z,5.20
2023-05-05T09:09:13.495Z,5.20
2023-05-05T09:14:16.446Z,5.00
2023-05-05T09:19:19.331Z,5.00
2023-05-05T09:24:23.541Z,5.80
2023-05-05T09:29:26.425Z,5.20
2023-05-05T09:34:29.209Z,5.20
2023-05-05T09:39:33.436Z,6.00
2023-05-05T09:44:36.624Z,5.60
2023-05-05T09:49:39.433Z,6.40
2023-05-05T09:54:43.669Z,6.00
2023-05-05T09:59:56.578Z,5.40
2023-05-05T10:05:06.289Z,6.00
2023-05-05T10:10:11.912Z,8.00
2023-05-05T10:15:15.473Z,6.00
2023-05-05T10:20:18.275Z,6.00
2023-05-05T10:25:26.668Z,6.00
2023-05-05T10:30:31.268Z,6.80
2023-05-05T10:35:34.609Z,5.60
2023-05-05T10:40:38.846Z,6.00
2023-05-05T10:45:41.720Z,8.00
2023-05-05T10:50:49.064Z,8.60
2023-05-05T10:55:56.256Z,6.80
2023-05-05T11:00:59.279Z,8.20
2023-05-05T11:06:15.776Z,8.60
2023-05-05T11:11:20.225Z,9.00
2023-05-05T11:16:44.253Z,9.40
2023-05-05T11:22:01.004Z,10.00
2023-05-05T11:27:05.427Z,10.00
2023-05-05T11:32:15.699Z,10.00
2023-05-05T11:37:18.671Z,8.00
2023-05-05T11:42:26.773Z,9.00
2023-05-05T11:47:32.777Z,10.00
2023-05-05T11:52:35.691Z,10.00
2023-05-05T11:57:40.097Z,9.00
2023-05-05T12:02:43.116Z,9.60
2023-05-05T12:07:46.065Z,9.00
2023-05-05T12:12:50.303Z,9.00
2023-05-05T12:17:53.181Z,10.20
2023-05-05T12:23:00.989Z,9.40
2023-05-05T12:28:06.097Z,8.80
2023-05-05T12:33:09.304Z,9.80
2023-05-05T12:38:12.312Z,8.60
2023-05-05T12:43:30.044Z,6.80
2023-05-05T12:48:32.962Z,9.00
2023-05-05T12:53:35.835Z,7.20
2023-05-05T12:58:49.734Z,7.20
2023-05-05T13:04:06.256Z,35.67
2023-05-05T13:09:10.192Z,42.75
2023-05-05T13:14:14.589Z,84.25
2023-05-05T13:19:17.447Z,94.67
2023-05-05T13:24:28.687Z,124.50
2023-05-05T13:29:40.106Z,140.50
2023-05-05T13:34:44.157Z,141.00
2023-05-05T13:39:47.208Z,125.75
2023-05-05T13:44:51.633Z,111.25
2023-05-05T13:49:54.649Z,113.25
2023-05-05T13:54:57.910Z,102.75
2023-05-05T14:00:04.772Z,102.50
2023-05-05T14:05:11.133Z,95.33
2023-05-05T14:10:14.220Z,91.33
2023-05-05T14:15:18.932Z,89.00
2023-05-05T14:20:22.041Z,89.33
2023-05-05T14:25:25.339Z,83.67
2023-05-05T14:30:29.687Z,81.00
2023-05-05T14:35:32.638Z,77.75
2023-05-05T14:40:35.480Z,76.25
2023-05-05T14:45:39.892Z,71.75
2023-05-05T14:50:42.851Z,67.00
2023-05-05T14:55:45.861Z,70.50
2023-05-05T15:00:50.108Z,69.00
2023-05-05T15:05:53.143Z,68.25
2023-05-05T15:10:55.910Z,67.00
2023-05-05T15:16:00.071Z,66.00
2023-05-05T15:21:03.064Z,63.50
2023-05-05T15:26:05.889Z,60.25
2023-05-05T15:31:10.283Z,59.25
2023-05-05T15:36:13.707Z,59.75
2023-05-05T15:41:16.583Z,57.50
2023-05-05T15:46:20.814Z,56.25
2023-05-05T15:51:23.688Z,53.50
2023-05-05T15:56:27.339Z,52.25
2023-05-05T16:01:33.379Z,50.00
2023-05-05T16:06:36.483Z,46.50
2023-05-05T16:11:39.301Z,46.00
2023-05-05T16:16:43.884Z,46.00
2023-05-05T16:21:46.682Z,45.50
2023-05-05T16:26:49.714Z,44.00
2023-05-05T16:31:53.977Z,44.00
2023-05-05T16:36:56.747Z,44.00
2023-05-05T16:41:59.584Z,42.75
2023-05-05T16:47:04.138Z,43.75
2023-05-05T16:52:07.054Z,43.00
2023-05-05T16:57:09.962Z,42.25
2023-05-05T17:02:14.288Z,43.00
2023-05-05T17:07:17.082Z,40.50
2023-05-05T17:12:19.873Z,40.25
2023-05-05T17:17:24.269Z,39.75
2023-05-05T17:22:27.069Z,38.75
2023-05-05T17:27:29.980Z,39.50
2023-05-05T17:32:34.108Z,37.00
2023-05-05T17:37:37.174Z,36.25
2023-05-05T17:42:40.530Z,36.25
2023-05-05T17:47:44.811Z,36.50
2023-05-05T17:52:47.683Z,35.50
2023-05-05T17:57:50.714Z,35.50
2023-05-05T18:02:55.763Z,35.50
2023-05-05T18:07:58.571Z,36.00
2023-05-05T18:13:01.368Z,35.00
2023-05-05T18:18:06.071Z,34.50
2023-05-05T18:23:08.939Z,33.00
2023-05-05T18:28:12.290Z,33.33
2023-05-05T18:33:16.546Z,32.33
2023-05-05T18:38:19.718Z,33.33
2023-05-05T18:43:22.521Z,31.33
2023-05-05T18:48:27.845Z,31.67
2023-05-05T18:53:30.944Z,30.67
2023-05-05T18:58:33.899Z,31.67
2023-05-05T19:03:38.523Z,31.00
2023-05-05T19:08:41.422Z,30.33
2023-05-05T19:13:44.238Z,29.67
2023-05-05T19:18:48.413Z,30.33
2023-05-05T19:23:51.196Z,28.00
2023-05-05T19:28:54.186Z,30.00
2023-05-05T19:34:00.802Z,28.67
2023-05-05T19:39:04.181Z,27.00
2023-05-05T19:44:06.953Z,29.00
2023-05-05T19:49:11.178Z,28.00
2023-05-05T19:54:14.246Z,27.00
2023-05-05T19:59:17.577Z,27.00
2023-05-05T20:04:21.711Z,28.00
2023-05-05T20:09:24.490Z,28.00
2023-05-05T20:14:27.266Z,26.50
2023-05-05T20:19:31.540Z,27.25
2023-05-05T20:24:34.879Z,25.75
2023-05-05T20:29:37.839Z,28.00
2023-05-05T20:34:42.151Z,26.50
2023-05-05T20:39:44.907Z,25.00
2023-05-05T20:44:47.816Z,26.25
2023-05-05T20:49:52.133Z,24.25
2023-05-05T20:54:54.989Z,25.00
2023-05-05T20:59:57.974Z,25.00
2023-05-05T21:05:03.210Z,24.50
2023-05-05T21:10:07.272Z,24.25
2023-05-05T21:15:11.571Z,24.00
2023-05-05T21:20:16.361Z,23.75
2023-05-05T21:25:19.806Z,23.25
2023-05-05T21:30:23.878Z,24.00
2023-05-05T21:35:28.071Z,22.75
2023-05-05T21:40:30.951Z,24.00
2023-05-05T21:45:33.948Z,23.25
2023-05-05T21:50:38.114Z,23.75
2023-05-05T21:55:40.893Z,24.00
2023-05-05T22:00:44.912Z,21.00
2023-05-05T22:05:49.191Z,23.50
2023-05-05T22:10:52.113Z,21.00
2023-05-05T22:15:54.950Z,21.75
2023-05-05T22:20:59.068Z,22.00
2023-05-05T22:26:01.910Z,21.00
2023-05-05T22:31:04.848Z,21.00
2023-05-05T22:36:10.056Z,22.00
2023-05-05T22:41:13.406Z,22.00
2023-05-05T22:46:16.223Z,21.00
2023-05-05T22:51:20.334Z,20.00
2023-05-05T22:56:23.088Z,21.75
2023-05-05T23:01:25.989Z,20.00
2023-05-05T23:06:30.257Z,20.75
2023-05-05T23:11:33.161Z,20.00
2023-05-05T23:16:36.008Z,20.00
2023-05-05T23:21:52.199Z,20.00
2023-05-05T23:26:56.582Z,20.75
2023-05-05T23:31:59.488Z,18.25
2023-05-05T23:37:05.917Z,19.20
2023-05-05T23:42:09.024Z,20.00
2023-05-05T23:47:11.845Z,18.75
2023-05-05T23:52:16.069Z,19.40
2023-05-05T23:57:18.883Z,19.00
